createdAt,value
2023-02-09T00:01:16.167Z,86.10
2023-02-09T00:07:18.892Z,86.45
2023-02-09T00:13:27.547Z,88.30
2023-02-09T00:19:32.967Z,87.55
2023-02-09T00:25:35.362Z,96.55
2023-02-09T00:31:38.798Z,87.40
2023-02-09T00:37:44.043Z,83.40
2023-02-09T00:43:51.737Z,90.20
2023-02-09T00:49:57.179Z,78.75
2023-02-09T00:56:04.456Z,85.05
2023-02-09T01:02:14.190Z,84.47
2023-02-09T01:08:18.918Z,73.35
2023-02-09T01:14:22.681Z,78.72
2023-02-09T01:20:25.177Z,72.55
2023-02-09T01:26:27.263Z,75.03
2023-02-09T01:32:33.215Z,73.00
2023-02-09T01:45:23.456Z,75.13
2023-02-09T01:51:35.875Z,75.80
2023-02-09T01:57:49.492Z,71.50
2023-02-09T02:03:55.799Z,74.35
2023-02-09T02:10:02.158Z,71.03
2023-02-09T02:16:34.374Z,69.65
2023-02-09T02:23:15.460Z,72.88
2023-02-09T02:29:37.380Z,56.03
2023-02-09T02:36:12.859Z,62.40
2023-02-09T02:42:51.927Z,60.42
2023-02-09T02:49:11.085Z,53.28
2023-02-09T02:55:17.933Z,56.25
2023-02-09T03:07:25.940Z,56.65
2023-02-09T03:14:07.349Z,57.08
2023-02-09T03:20:29.124Z,66.40
2023-02-09T03:26:42.621Z,61.45
2023-02-09T03:32:47.419Z,54.22
2023-02-09T03:38:50.011Z,62.28
2023-02-09T03:44:52.975Z,50.10
2023-02-09T03:50:57.920Z,51.80
2023-02-09T03:57:02.356Z,52.35
2023-02-09T04:03:07.312Z,47.60
2023-02-09T04:09:11.180Z,49.55
2023-02-09T04:15:13.890Z,59.40
2023-02-09T04:21:19.433Z,53.35
2023-02-09T04:27:27.343Z,51.05
2023-02-09T04:33:32.696Z,57.30
2023-02-09T04:39:44.460Z,65.25
2023-02-09T04:45:54.045Z,55.85
2023-02-09T04:51:58.731Z,58.22
2023-02-09T04:58:19.483Z,56.97
2023-02-09T05:04:21.314Z,55.00
2023-02-09T05:10:23.655Z,52.72
2023-02-09T05:16:25.783Z,51.28
2023-02-09T05:22:28.007Z,49.03
2023-02-09T05:28:32.521Z,47.15
2023-02-09T05:34:34.278Z,49.70
2023-02-09T05:40:36.079Z,45.92
2023-02-09T05:46:37.906Z,45.25
2023-02-09T05:52:39.707Z,44.22
2023-02-09T05:58:45.836Z,42.50
2023-02-09T06:04:47.900Z,44.00
2023-02-09T06:10:49.653Z,45.72
2023-02-09T06:16:51.523Z,44.45
2023-02-09T06:22:54.846Z,46.42
2023-02-09T06:28:56.659Z,44.88
2023-02-09T06:34:58.623Z,44.92
2023-02-09T06:41:00.819Z,48.85
2023-02-09T06:47:03.023Z,47.15
2023-02-09T06:53:05.885Z,44.95
2023-02-09T06:59:07.649Z,41.78
2023-02-09T07:05:10.105Z,40.30
2023-02-09T07:11:17.486Z,41.30
2023-02-09T07:17:19.315Z,39.22
2023-02-09T07:23:21.100Z,42.05
2023-02-09T07:29:23.119Z,36.28
2023-02-09T07:35:24.960Z,40.72
2023-02-09T07:41:27.883Z,40.95
2023-02-09T07:47:29.618Z,34.38
2023-02-09T07:53:31.457Z,32.25
2023-02-09T07:59:33.174Z,33.85
2023-02-09T08:05:51.039Z,37.45
2023-02-09T08:12:03.845Z,31.38
2023-02-09T08:18:13.041Z,36.58
2023-02-09T08:24:20.565Z,34.28
2023-02-09T08:30:22.628Z,34.40
2023-02-09T08:36:24.521Z,34.78
2023-02-09T08:42:26.572Z,36.08
2023-02-09T08:48:35.949Z,39.38
2023-02-09T08:54:37.999Z,37.55
2023-02-09T09:00:39.914Z,36.42
2023-02-09T09:06:41.829Z,40.13
2023-02-09T09:12:44.520Z,38.25
2023-02-09T09:18:46.671Z,38.08
2023-02-09T09:24:56.275Z,33.85
2023-02-09T09:31:02.105Z,39.50
2023-02-09T09:37:03.954Z,36.53
2023-02-09T09:43:19.178Z,28.23
2023-02-09T09:49:27.176Z,27.98
2023-02-09T09:55:31.689Z,31.35
2023-02-09T10:01:33.565Z,28.73
2023-02-09T10:07:35.903Z,30.70
2023-02-09T10:13:53.349Z,34.53
2023-02-09T10:20:07.235Z,35.10
2023-02-09T10:26:08.930Z,30.90
2023-02-09T10:32:18.631Z,31.15
2023-02-09T10:38:22.903Z,28.65
2023-02-09T10:44:35.388Z,25.92
2023-02-09T10:50:56.990Z,24.58
2023-02-09T10:56:59.730Z,27.95
2023-02-09T11:03:02.776Z,25.65
2023-02-09T11:09:12.591Z,29.45
2023-02-09T11:15:15.781Z,31.17
2023-02-09T11:21:24.274Z,27.17
2023-02-09T11:27:57.460Z,25.65
2023-02-09T11:34:33.382Z,28.35
2023-02-09T11:40:43.604Z,29.33
2023-02-09T11:46:47.993Z,26.65
2023-02-09T11:53:25.902Z,28.48
2023-02-09T11:59:43.352Z,28.65
2023-02-09T12:05:45.567Z,28.27
2023-02-09T12:12:02.343Z,29.15
2023-02-09T12:18:24.208Z,27.05
2023-02-09T12:24:31.867Z,26.02
2023-02-09T12:37:27.320Z,25.83
2023-02-09T12:43:33.300Z,25.97
2023-02-09T12:49:35.164Z,27.50
2023-02-09T12:55:38.104Z,25.90
2023-02-09T13:02:07.770Z,24.83
2023-02-09T13:08:18.317Z,29.05
2023-02-09T13:14:22.346Z,24.55
2023-02-09T13:20:42.897Z,23.02
2023-02-09T13:26:56.665Z,28.02
2023-02-09T13:33:09.207Z,24.80
2023-02-09T13:39:24.667Z,25.30
2023-02-09T13:45:27.205Z,25.98
2023-02-09T13:51:29.042Z,29.45
2023-02-09T13:57:35.844Z,29.20
2023-02-09T14:03:57.422Z,29.33
2023-02-09T14:10:06.251Z,26.08
2023-02-09T14:16:08.659Z,28.60
2023-02-09T14:22:33.769Z,30.23
2023-02-09T14:28:37.073Z,26.67
2023-02-09T14:34:40.124Z,27.83
2023-02-09T14:40:41.854Z,30.65
2023-02-09T14:46:52.457Z,28.58
2023-02-09T14:53:06.539Z,25.42
2023-02-09T14:59:15.713Z,27.50
2023-02-09T15:05:18.604Z,34.95
2023-02-09T15:11:42.883Z,30.20
2023-02-09T15:17:45.095Z,34.92
2023-02-09T15:23:46.913Z,28.15
2023-02-09T15:29:49.133Z,28.38
2023-02-09T15:35:50.952Z,27.23
2023-02-09T15:42:11.200Z,27.40
2023-02-09T15:48:13.148Z,31.00
2023-02-09T15:54:20.321Z,27.00
2023-02-09T16:00:27.199Z,25.35
2023-02-09T16:06:29.114Z,25.17
2023-02-09T16:12:30.974Z,28.77
2023-02-09T16:18:32.773Z,30.13
2023-02-09T16:24:49.369Z,26.63
2023-02-09T16:30:54.267Z,27.73
2023-02-09T16:36:56.149Z,27.38
2023-02-09T16:42:59.959Z,30.40
2023-02-09T16:49:01.914Z,34.42
2023-02-09T16:55:06.914Z,32.78
2023-02-09T17:01:36.514Z,38.45
2023-02-09T17:08:25.491Z,36.53
2023-02-09T17:21:32.903Z,31.35
2023-02-09T17:28:10.788Z,36.95
2023-02-09T17:34:38.892Z,37.13
2023-02-09T17:41:05.585Z,36.78
2023-02-09T17:54:39.459Z,37.10
2023-02-09T18:01:00.518Z,40.80
2023-02-09T18:07:03.550Z,41.97
2023-02-09T18:13:16.702Z,44.92
2023-02-09T18:19:48.315Z,46.92
2023-02-09T18:26:03.399Z,40.13
2023-02-09T18:32:10.682Z,42.83
2023-02-09T18:38:39.076Z,77.13
2023-02-09T18:44:57.377Z,57.50
2023-02-09T18:51:23.016Z,83.60
2023-02-09T18:57:42.717Z,42.97
2023-02-09T19:04:03.597Z,42.15
2023-02-09T19:10:57.453Z,45.65
2023-02-09T19:17:02.449Z,42.83
2023-02-09T19:23:26.370Z,48.70
2023-02-09T19:30:00.688Z,51.25
2023-02-09T19:36:03.604Z,53.88
2023-02-09T19:49:06.171Z,51.60
2023-02-09T19:55:25.605Z,47.83
2023-02-09T20:01:50.915Z,50.17
2023-02-09T20:08:05.692Z,49.65
2023-02-09T20:14:10.849Z,59.42
2023-02-09T20:20:12.789Z,79.93
2023-02-09T20:26:23.148Z,65.32
2023-02-09T20:32:25.889Z,54.13
2023-02-09T20:38:32.987Z,48.83
2023-02-09T20:51:07.336Z,47.37
2023-02-09T20:57:09.347Z,46.22
2023-02-09T21:03:11.696Z,49.70
2023-02-09T21:09:16.622Z,42.75
2023-02-09T21:15:18.644Z,48.05
2023-02-09T21:21:22.415Z,44.25
2023-02-09T21:27:28.553Z,49.47
2023-02-09T21:33:33.184Z,45.83
2023-02-09T21:39:38.142Z,44.72
2023-02-09T21:45:42.988Z,42.60
2023-02-09T21:51:48.962Z,43.83
2023-02-09T21:57:59.004Z,42.13
2023-02-09T22:04:02.274Z,43.17
2023-02-09T22:10:05.933Z,46.65
2023-02-09T22:16:09.566Z,44.97
2023-02-09T22:22:11.572Z,47.25
2023-02-09T22:28:14.263Z,46.22
2023-02-09T22:34:19.801Z,46.88
2023-02-09T22:40:22.298Z,42.30
2023-02-09T22:46:28.806Z,46.15
2023-02-09T22:52:32.771Z,47.33
2023-02-09T22:58:36.064Z,46.30
2023-02-09T23:04:39.317Z,53.33
2023-02-09T23:10:42.326Z,45.33
2023-02-09T23:16:49.652Z,44.50
2023-02-09T23:28:57.290Z,46.80
2023-02-09T23:35:03.583Z,48.33
2023-02-09T23:41:13.135Z,45.80
2023-02-09T23:47:23.342Z,44.28
2023-02-09T23:53:44.256Z,46.03
2023-02-09T23:59:51.558Z,45.92
